TimeCST,TemperatureF,Dew PointF,Humidity,Sea Level PressureIn,VisibilityMPH,Wind Direction,Wind SpeedMPH,Gust SpeedMPH,PrecipitationIn,Events,Conditions,WindDirDegrees,DateUTC
12:15 AM,33.8,33.8,100,29.89,10.0,SSE,4.6,-,N/A,,Overcast,160,2013-12-28 06:15:00
12:34 AM,33.8,33.8,100,29.88,10.0,SSE,3.5,-,N/A,,Overcast,160,2013-12-28 06:34:00
12:55 AM,33.8,33.8,100,29.87,7.0,SE,4.6,-,N/A,,Overcast,140,2013-12-28 06:55:00
1:15 AM,33.8,33.8,100,29.86,7.0,SE,5.8,-,N/A,,Overcast,130,2013-12-28 07:15:00
1:34 AM,33.8,33.8,100,29.84,7.0,SE,5.8,-,N/A,,Overcast,140,2013-12-28 07:34:00
1:55 AM,33.8,33.8,100,29.83,7.0,SE,6.9,-,N/A,,Overcast,140,2013-12-28 07:55:00
2:15 AM,33.8,33.8,100,29.82,7.0,SSE,6.9,-,N/A,,Overcast,160,2013-12-28 08:15:00
2:34 AM,33.8,33.8,100,29.83,10.0,South,4.6,-,N/A,,Overcast,170,2013-12-28 08:34:00
2:55 AM,33.8,33.8,100,29.81,10.0,South,6.9,-,N/A,,Scattered Clouds,180,2013-12-28 08:55:00
3:15 AM,32.0,32.0,100,29.80,7.0,South,6.9,-,N/A,,Clear,170,2013-12-28 09:15:00
3:34 AM,30.2,30.2,100,29.79,7.0,South,6.9,-,N/A,,Clear,170,2013-12-28 09:34:00
3:55 AM,30.2,30.2,100,29.78,7.0,South,5.8,-,N/A,,Clear,170,2013-12-28 09:55:00
4:15 AM,30.2,30.2,100,29.77,5.0,South,6.9,-,N/A,,Clear,170,2013-12-28 10:15:00
4:34 AM,30.2,30.2,100,29.76,5.0,SSE,8.1,-,N/A,,Clear,160,2013-12-28 10:34:00
4:55 AM,30.2,30.2,100,29.74,5.0,South,11.5,-,N/A,,Mostly Cloudy,170,2013-12-28 10:55:00
5:15 AM,30.2,30.2,100,29.74,4.0,South,11.5,-,N/A,,Overcast,170,2013-12-28 11:15:00
5:35 AM,30.2,30.2,100,29.73,2.0,SSE,11.5,-,N/A,,Overcast,160,2013-12-28 11:35:00
5:55 AM,30.2,30.2,100,29.72,7.0,SSE,13.8,-,N/A,,Mostly Cloudy,160,2013-12-28 11:55:00
6:14 AM,30.2,30.2,100,29.72,10.0,SSE,10.4,-,N/A,,Scattered Clouds,160,2013-12-28 12:14:00
6:35 AM,30.2,30.2,100,29.71,10.0,SSE,12.7,-,N/A,,Clear,160,2013-12-28 12:35:00
6:55 AM,30.2,30.2,100,29.70,10.0,South,12.7,-,N/A,,Clear,170,2013-12-28 12:55:00
7:14 AM,30.2,30.2,100,29.69,10.0,SSE,10.4,-,N/A,,Clear,160,2013-12-28 13:14:00
7:35 AM,30.2,30.2,100,29.69,10.0,South,8.1,-,N/A,,Clear,180,2013-12-28 13:35:00
7:55 AM,30.2,30.2,100,29.71,10.0,Calm,Calm,-,N/A,,Clear,0,2013-12-28 13:55:00
8:14 AM,28.4,28.4,100,29.72,10.0,West,3.5,-,N/A,,Clear,270,2013-12-28 14:14:00
8:35 AM,26.6,26.6,100,29.71,10.0,Calm,Calm,-,N/A,,Clear,0,2013-12-28 14:35:00
8:55 AM,26.6,26.6,100,29.73,10.0,WNW,4.6,-,N/A,,Clear,300,2013-12-28 14:55:00
9:14 AM,26.6,26.6,100,29.73,10.0,WNW,3.5,-,N/A,,Clear,290,2013-12-28 15:14:00
9:35 AM,26.6,26.6,100,29.73,10.0,Calm,Calm,-,N/A,,Clear,0,2013-12-28 15:35:00
9:54 AM,26.6,26.6,100,29.74,10.0,Calm,Calm,-,N/A,,Clear,0,2013-12-28 15:54:00
10:15 AM,26.6,26.6,100,29.74,10.0,North,8.1,-,N/A,,Scattered Clouds,350,2013-12-28 16:15:00
10:35 AM,24.8,24.8,100,29.76,4.0,North,10.4,-,N/A,,Mostly Cloudy,350,2013-12-28 16:35:00
10:54 AM,24.8,24.8,100,29.77,4.0,North,10.4,-,N/A,,Overcast,350,2013-12-28 16:54:00
11:15 AM,24.8,24.8,100,29.76,2.5,NNW,9.2,-,N/A,,Overcast,340,2013-12-28 17:15:00
11:35 AM,24.8,24.8,100,29.77,2.0,NNW,11.5,-,N/A,,Overcast,330,2013-12-28 17:35:00
11:54 AM,26.6,26.6,100,29.77,3.0,NNW,11.5,-,N/A,,Overcast,330,2013-12-28 17:54:00
12:15 PM,28.4,28.4,100,29.77,5.0,NNW,20.7,-,N/A,,Overcast,340,2013-12-28 18:15:00
12:35 PM,21.2,21.2,100,29.77,1.0,NNW,28.8,34.5,N/A,,Overcast,340,2013-12-28 18:35:00
12:54 PM,21.2,21.2,100,29.79,0.8,NNW,24.2,31.1,N/A,,Overcast,340,2013-12-28 18:54:00
1:15 PM,23.0,23.0,100,29.79,0.8,North,28.8,34.5,N/A,,Overcast,360,2013-12-28 19:15:00
1:35 PM,21.2,21.2,100,29.81,0.8,North,34.5,40.3,N/A,,Overcast,350,2013-12-28 19:35:00
1:54 PM,19.4,19.4,100,29.84,0.8,North,36.8,42.6,N/A,,Overcast,350,2013-12-28 19:54:00
2:15 PM,15.8,15.8,100,29.87,0.2,NNW,34.5,39.1,N/A,,Overcast,340,2013-12-28 20:15:00
2:35 PM,14.0,14.0,100,29.89,0.2,North,34.5,39.1,N/A,Snow,Light Snow,350,2013-12-28 20:35:00
2:55 PM,12.2,12.2,100,29.91,0.2,North,34.5,39.1,N/A,Snow,Snow,360,2013-12-28 20:55:00
3:15 PM,10.4,10.4,100,29.93,0.2,North,38.0,42.6,N/A,Snow,Heavy Snow,360,2013-12-28 21:15:00
3:34 PM,8.6,8.6,100,29.95,0.2,North,38.0,42.6,N/A,Snow,Snow,350,2013-12-28 21:34:00
3:55 PM,6.8,6.8,100,29.98,0.2,North,38.0,41.4,N/A,Snow,Light Snow,360,2013-12-28 21:55:00
4:15 PM,6.8,5.0,92,-9999,0.2,North,36.8,47.2,N/A,Snow,Light Snow,350,2013-12-28 22:15:00
4:34 PM,5.0,3.2,92,30.04,0.2,North,39.1,49.5,N/A,Snow,Light Snow,360,2013-12-28 22:34:00
4:55 PM,3.2,1.4,92,30.06,0.5,North,41.4,49.5,N/A,,Overcast,360,2013-12-28 22:55:00
5:15 PM,3.2,1.4,92,30.08,0.8,North,41.4,46.0,N/A,Snow,Light Snow,360,2013-12-28 23:15:00
5:34 PM,1.4,-0.4,92,30.11,0.5,North,38.0,47.2,N/A,Snow,Light Snow,350,2013-12-28 23:34:00
5:55 PM,1.4,-0.4,92,30.14,0.8,North,41.4,47.2,N/A,Snow,Light Snow,360,2013-12-28 23:55:00
6:15 PM,1.4,-2.2,85,30.16,1.5,North,41.4,48.3,N/A,,Overcast,360,2013-12-29 00:15:00
6:34 PM,-0.4,-2.2,92,30.18,1.0,North,38.0,46.0,N/A,,Overcast,360,2013-12-29 00:34:00
6:55 PM,-2.2,-4.0,92,30.20,0.5,North,34.5,47.2,N/A,Snow,Heavy Snow,360,2013-12-29 00:55:00
7:15 PM,-2.2,-5.8,85,30.22,0.8,North,41.4,46.0,N/A,Snow,Light Snow,360,2013-12-29 01:15:00
7:34 PM,-2.2,-5.8,85,30.24,5.0,North,32.2,42.6,N/A,,Overcast,360,2013-12-29 01:34:00
7:55 PM,-4.0,-7.6,85,30.26,3.0,North,38.0,47.2,N/A,,Overcast,360,2013-12-29 01:55:00
8:15 PM,-5.8,-9.4,84,30.27,5.0,North,39.1,46.0,N/A,,Mostly Cloudy,360,2013-12-29 02:15:00
8:34 PM,-5.8,-9.4,84,30.29,7.0,North,35.7,43.7,N/A,,Overcast,360,2013-12-29 02:34:00
8:55 PM,-5.8,-9.4,84,30.31,10.0,North,31.1,41.4,N/A,,Overcast,360,2013-12-29 02:55:00
9:15 PM,-7.6,-11.2,84,30.33,10.0,North,29.9,39.1,N/A,,Scattered Clouds,360,2013-12-29 03:15:00
9:34 PM,-7.6,-11.2,84,30.33,10.0,North,28.8,34.5,N/A,,Clear,360,2013-12-29 03:34:00
9:55 PM,-9.4,-13.0,84,30.35,3.0,North,29.9,33.4,N/A,,Mostly Cloudy,360,2013-12-29 03:55:00
10:15 PM,-9.4,-14.8,77,30.36,5.0,North,25.3,34.5,N/A,,Haze,360,2013-12-29 04:15:00
10:35 PM,-9.4,-14.8,77,30.37,10.0,North,28.8,33.4,N/A,,Scattered Clouds,350,2013-12-29 04:35:00
10:55 PM,-11.2,-16.6,77,30.38,10.0,North,23.0,34.5,N/A,,Clear,360,2013-12-29 04:55:00
11:14 PM,-11.2,-16.6,77,30.40,7.0,North,20.7,-,N/A,,Scattered Clouds,350,2013-12-29 05:14:00
11:35 PM,-11.2,-16.6,77,30.41,10.0,North,19.6,-,N/A,,Scattered Clouds,350,2013-12-29 05:35:00
11:55 PM,-13.0,-18.4,77,30.41,10.0,North,20.7,-,N/A,,Clear,350,2013-12-29 05:55:00